Time;durP1;ratioP1;P1;durP2;ratioP2;P2;SDS_P1;SDS_P2;PMS_P1;PMS_P2;Temp;Humidity;BMP_temperature;BMP_pressure;BME280_temperature;BME280_humidity;BME280_pressure;Samples;Min_cycle;Max_cycle;Signal;HPM_P1;HPM_P2
2021/07/22 00:00:41;;;;;;;10.35;9.45;;;16.40;99.90;;;17.36;77.18;98393.56;5161349;28;20689;-68
2021/07/22 00:03:15;;;;;;;10.50;9.35;;;16.40;99.90;;;17.34;77.30;98394.41;5148068;28;20210;-68
2021/07/22 00:05:49;;;;;;;10.52;9.48;;;16.50;99.90;;;17.41;77.36;98392.03;5161692;28;20624;-68
2021/07/22 00:08:22;;;;;;;10.57;9.55;;;16.50;99.90;;;17.38;76.92;98397.97;5165158;28;20247;-68
2021/07/22 00:10:55;;;;;;;9.75;8.95;;;16.40;99.90;;;17.37;76.78;98396.22;5162835;28;20693;-68
2021/07/22 00:13:28;;;;;;;10.02;9.13;;;16.30;99.90;;;17.33;77.22;98400.38;5163673;28;20271;-68
2021/07/22 00:16:01;;;;;;;10.30;9.30;;;16.30;99.90;;;17.26;76.99;98393.22;5164334;28;20203;-68
2021/07/22 00:18:35;;;;;;;11.18;10.07;;;16.30;99.90;;;17.24;76.48;98388.81;5161213;28;20739;-66
2021/07/22 00:21:09;;;;;;;11.52;9.82;;;16.20;99.90;;;17.29;76.69;98393.34;5163273;28;20198;-68
2021/07/22 00:23:43;;;;;;;10.82;9.80;;;16.20;99.90;;;17.13;76.29;98384.91;5162938;28;20262;-66
2021/07/22 00:26:16;;;;;;;11.40;10.30;;;16.10;99.90;;;16.95;76.86;98383.34;5162492;28;20262;-68
2021/07/22 00:28:49;;;;;;;10.15;9.15;;;16.00;99.90;;;16.99;76.89;98384.34;5160370;28;20294;-68
2021/07/22 00:31:22;;;;;;;10.23;9.05;;;16.00;99.90;;;16.96;77.50;98382.53;5161457;28;20241;-66
2021/07/22 00:33:57;;;;;;;10.43;9.43;;;16.00;99.90;;;16.94;77.89;98383.28;5149508;28;20198;-66
2021/07/22 00:36:30;;;;;;;11.20;9.77;;;16.00;99.90;;;17.04;77.62;98381.13;5163744;28;20672;-66
2021/07/22 00:39:04;;;;;;;11.95;9.80;;;16.00;99.90;;;16.98;78.54;98380.03;5162750;28;20200;-67
2021/07/22 00:41:40;;;;;;;11.30;10.15;;;16.00;99.90;;;17.00;77.99;98376.69;5164625;28;20217;-66
2021/07/22 00:44:13;;;;;;;10.98;9.40;;;16.00;99.90;;;16.97;78.27;98367.91;5163343;28;20199;-66
2021/07/22 00:46:46;;;;;;;10.10;9.18;;;16.00;99.90;;;16.97;78.02;98371.41;5163550;28;20225;-66
2021/07/22 00:49:20;;;;;;;11.07;9.98;;;16.10;99.90;;;16.97;78.28;98378.25;5164152;28;20294;-66
2021/07/22 00:51:54;;;;;;;10.32;9.35;;;16.00;99.90;;;16.95;78.69;98370.44;5163876;28;20215;-67
2021/07/22 00:54:27;;;;;;;10.85;9.65;;;16.10;99.90;;;16.91;79.34;98371.13;5165870;28;20587;-68
2021/07/22 00:57:00;;;;;;;10.80;9.90;;;16.00;99.90;;;16.86;78.47;98365.78;5168354;28;20229;-66
2021/07/22 00:59:33;;;;;;;11.32;10.13;;;15.90;99.90;;;16.78;78.62;98379.22;5169649;28;20230;-66
2021/07/22 01:02:06;;;;;;;10.43;9.40;;;15.90;99.90;;;16.70;78.20;98370.22;5172158;28;20299;-66
2021/07/22 01:04:41;;;;;;;9.90;8.77;;;15.80;99.90;;;16.67;78.08;98368.41;5173886;28;20635;-67
2021/07/22 01:07:14;;;;;;;11.15;10.05;;;15.70;99.90;;;16.65;78.50;98365.78;5170812;28;20223;-66
2021/07/22 01:09:50;;;;;;;11.02;9.95;;;15.70;99.90;;;16.64;79.08;98374.31;5164621;28;20199;-67
2021/07/22 01:12:24;;;;;;;11.50;10.40;;;15.70;99.90;;;16.65;78.90;98365.78;5167470;28;20696;-67
2021/07/22 01:14:56;;;;;;;11.48;10.38;;;15.70;99.90;;;16.60;79.97;98362.13;5165556;28;20203;-67
2021/07/22 01:17:40;;;;;;;11.57;10.43;;;15.80;99.90;;;16.62;79.77;98360.47;5167156;28;20721;-67
2021/07/22 01:20:15;;;;;;;11.07;9.98;;;15.80;99.90;;;16.65;79.72;98355.44;5167544;28;20199;-67
2021/07/22 01:22:52;;;;;;;12.05;10.55;;;15.80;99.90;;;16.69;79.43;98355.56;5166346;28;20215;-67
2021/07/22 01:25:27;;;;;;;10.73;9.73;;;15.70;99.90;;;16.69;79.38;98359.03;5165068;28;20547;-67
2021/07/22 01:28:00;;;;;;;11.32;10.15;;;15.70;99.90;;;16.64;80.47;98361.41;5165690;28;20225;-67
2021/07/22 01:30:33;;;;;;;11.55;10.40;;;15.70;99.90;;;16.65;80.15;98360.63;5166673;28;20258;-67
2021/07/22 01:33:06;;;;;;;11.38;10.05;;;15.80;99.90;;;16.63;79.88;98361.38;5166074;28;20199;-67
2021/07/22 01:35:41;;;;;;;11.90;10.68;;;15.70;99.90;;;16.66;79.70;98361.50;5165603;28;20204;-67
2021/07/22 01:38:14;;;;;;;11.68;10.57;;;15.70;99.90;;;16.63;80.29;98354.50;5165730;28;20233;-68
2021/07/22 01:40:47;;;;;;;11.10;9.93;;;15.70;99.90;;;16.64;79.80;98358.84;5166455;28;20315;-68
2021/07/22 01:43:20;;;;;;;11.30;10.20;;;15.70;99.90;;;16.61;79.27;98361.28;5165713;28;20210;-68
2021/07/22 01:45:53;;;;;;;12.00;10.80;;;15.60;99.90;;;16.54;80.65;98356.72;5160985;28;20203;-68
2021/07/22 01:48:26;;;;;;;11.23;10.10;;;15.60;99.90;;;16.57;80.30;98349.09;5166262;28;20322;-68
2021/07/22 01:51:00;;;;;;;11.10;9.98;;;15.70;99.90;;;16.56;80.02;98356.75;5166805;28;20306;-68
2021/07/22 01:53:34;;;;;;;11.30;10.15;;;15.60;99.90;;;16.54;79.85;98351.53;5165706;28;20289;-68
2021/07/22 01:56:07;;;;;;;10.63;9.63;;;15.60;99.90;;;16.57;79.28;98351.66;5165493;28;20295;-68
2021/07/22 01:58:40;;;;;;;10.98;9.88;;;15.60;99.90;;;16.52;79.73;98353.16;5164744;28;20290;-68
2021/07/22 02:01:13;;;;;;;11.07;9.98;;;15.50;99.90;;;16.53;79.55;98349.75;5166871;28;20210;-68
2021/07/22 02:03:46;;;;;;;11.68;10.50;;;15.50;99.90;;;16.42;79.14;98346.75;5167217;28;20199;-68
2021/07/22 02:06:20;;;;;;;11.10;10.02;;;15.40;99.90;;;16.35;79.70;98349.00;5168030;28;20209;-68
2021/07/22 02:08:53;;;;;;;11.18;10.07;;;15.40;99.90;;;16.24;80.11;98340.81;5155218;28;20210;-68
2021/07/22 02:11:26;;;;;;;10.65;9.57;;;15.30;99.90;;;16.20;81.10;98338.94;5148125;28;20251;-68
2021/07/22 02:14:00;;;;;;;12.45;10.60;;;15.30;99.90;;;16.21;80.71;98340.69;5165550;28;20671;-68
2021/07/22 02:16:33;;;;;;;10.80;9.70;;;15.30;99.90;;;16.21;80.24;98336.38;5164944;28;20219;-68
2021/07/22 02:19:06;;;;;;;11.65;10.38;;;15.30;99.90;;;16.21;80.43;98335.50;5162739;28;20636;-68
2021/07/22 02:21:41;;;;;;;11.40;10.30;;;15.30;99.90;;;16.16;80.63;98331.84;5164217;28;20207;-69
2021/07/22 02:24:15;;;;;;;10.73;9.60;;;15.20;99.90;;;16.16;80.31;98337.88;5167026;28;20313;-68
2021/07/22 02:26:48;;;;;;;12.13;9.32;;;15.20;99.90;;;16.15;79.85;98336.13;5166707;28;20223;-68
2021/07/22 02:29:21;;;;;;;10.25;9.30;;;15.10;99.90;;;16.11;79.85;98339.41;5163364;28;20570;-67
2021/07/22 02:31:54;;;;;;;10.30;9.32;;;15.10;99.90;;;16.13;80.17;98335.19;5166226;28;20311;-68
2021/07/22 02:34:27;;;;;;;10.80;9.70;;;15.10;99.90;;;16.09;80.15;98333.31;5167719;28;20201;-68
2021/07/22 02:37:02;;;;;;;10.82;9.82;;;15.10;99.90;;;16.08;79.92;98339.28;5164642;28;20674;-68
2021/07/22 02:39:38;;;;;;;10.43;9.43;;;15.10;99.90;;;15.97;80.91;98343.97;5167696;28;20293;-68
2021/07/22 02:42:11;;;;;;;10.82;9.80;;;15.00;99.90;;;16.02;80.26;98336.41;5166648;28;20195;-68
2021/07/22 02:44:44;;;;;;;10.70;9.68;;;15.10;99.90;;;15.99;80.43;98344.03;5163917;28;20202;-69
2021/07/22 02:47:17;;;;;;;11.57;10.48;;;15.10;99.90;;;15.95;80.71;98344.72;5166448;28;20309;-70
2021/07/22 02:49:51;;;;;;;10.68;9.68;;;15.10;99.90;;;15.96;80.75;98346.47;5167536;28;20230;-69
2021/07/22 02:52:26;;;;;;;11.02;9.95;;;15.00;99.90;;;15.96;80.87;98349.03;5166981;28;20241;-69
2021/07/22 02:54:59;;;;;;;11.55;10.45;;;15.10;99.90;;;15.91;80.93;98355.69;5164855;28;20290;-69
2021/07/22 02:57:32;;;;;;;11.20;10.10;;;15.00;99.90;;;15.94;80.93;98350.69;5165146;28;20318;-69
2021/07/22 03:00:07;;;;;;;10.38;9.38;;;15.00;99.90;;;15.94;80.92;98345.53;5156799;28;20200;-68
2021/07/22 03:02:40;;;;;;;11.15;10.15;;;14.90;99.90;;;15.89;80.76;98347.91;5166785;28;20205;-69
2021/07/22 03:05:14;;;;;;;10.77;9.88;;;14.90;99.90;;;15.88;81.17;98355.56;5169891;28;20295;-69
2021/07/22 03:07:48;;;;;;;11.23;10.13;;;14.90;99.90;;;15.85;81.01;98350.25;5168310;28;20306;-69
2021/07/22 03:10:21;;;;;;;10.77;9.82;;;14.90;99.90;;;15.85;80.77;98346.03;5167713;28;20298;-69
2021/07/22 03:12:54;;;;;;;11.70;10.63;;;14.90;99.90;;;15.85;80.52;98353.75;5165332;28;20223;-69
2021/07/22 03:15:28;;;;;;;11.57;10.38;;;14.90;99.90;;;15.75;81.56;98360.19;5165686;28;20254;-68
2021/07/22 03:18:01;;;;;;;11.38;10.27;;;14.90;99.90;;;15.68;81.81;98362.41;5161287;28;20219;-69
2021/07/22 03:20:35;;;;;;;11.02;10.02;;;14.80;99.90;;;15.61;82.06;98360.34;5168108;28;20252;-69
2021/07/22 03:23:10;;;;;;;11.40;10.32;;;14.60;99.90;;;15.66;81.86;98364.88;5169110;28;20199;-69
2021/07/22 03:25:43;;;;;;;10.93;10.00;;;14.70;99.90;;;15.55;81.17;98361.81;5166443;28;20293;-69
2021/07/22 03:28:16;;;;;;;11.77;10.57;;;14.60;99.90;;;15.42;82.55;98358.59;5166362;28;20587;-69
2021/07/22 03:30:49;;;;;;;12.05;10.95;;;14.50;99.90;;;15.48;81.82;98364.03;5167848;28;20222;-69
2021/07/22 03:33:22;;;;;;;10.70;9.60;;;14.60;99.90;;;15.51;82.15;98365.09;5165551;28;20233;-69
2021/07/22 03:35:55;;;;;;;11.55;10.55;;;14.60;99.90;;;15.50;82.54;98359.84;5168964;28;20652;-69
2021/07/22 03:38:30;;;;;;;11.13;10.13;;;14.60;99.90;;;15.50;82.63;98359.84;5166971;28;20718;-68
2021/07/22 03:41:03;;;;;;;11.68;10.57;;;14.60;99.90;;;15.52;82.44;98360.81;5168730;28;20195;-69
2021/07/22 03:43:36;;;;;;;10.93;9.82;;;14.60;99.90;;;15.48;81.44;98359.78;5166160;28;20214;-69
2021/07/22 03:46:09;;;;;;;11.30;9.98;;;14.60;99.90;;;15.55;82.09;98360.94;5166376;28;20270;-69
2021/07/22 03:48:42;;;;;;;12.10;10.85;;;14.60;99.90;;;15.64;82.29;98365.63;5166322;28;20208;-69
2021/07/22 03:51:15;;;;;;;11.82;10.45;;;14.70;99.90;;;15.64;82.02;98370.78;5167393;28;20290;-69
2021/07/22 03:53:49;;;;;;;11.43;10.23;;;14.70;99.90;;;15.68;81.96;98372.72;5166234;28;20199;-69
2021/07/22 03:56:22;;;;;;;12.13;10.93;;;14.70;99.90;;;15.61;82.15;98371.53;5167062;28;20693;-70
2021/07/22 03:58:55;;;;;;;11.82;10.68;;;14.70;99.90;;;15.63;82.37;98375.06;5164759;28;20629;-70
2021/07/22 04:01:28;;;;;;;12.10;10.90;;;14.70;99.90;;;15.60;82.85;98374.06;5164840;28;20290;-69
2021/07/22 04:04:02;;;;;;;11.63;10.45;;;14.80;99.90;;;15.63;82.30;98375.06;5165598;28;20234;-69
2021/07/22 04:06:35;;;;;;;11.63;10.52;;;14.70;99.90;;;15.65;82.36;98370.88;5164212;28;20233;-69
2021/07/22 04:09:10;;;;;;;13.15;11.73;;;14.80;99.90;;;15.67;82.82;98376.06;5167830;28;20302;-69
2021/07/22 04:11:43;;;;;;;12.00;10.90;;;14.80;99.90;;;15.68;83.73;98383.03;5166543;28;20301;-69
2021/07/22 04:14:16;;;;;;;12.73;11.23;;;14.90;99.90;;;15.72;82.54;98383.25;5164407;28;20219;-69
2021/07/22 04:16:49;;;;;;;13.05;11.85;;;14.90;99.90;;;15.71;82.60;98378.03;5159845;28;20656;-69
2021/07/22 04:19:22;;;;;;;11.98;10.80;;;14.80;99.90;;;15.79;82.00;98380.94;5148130;28;20230;-70
2021/07/22 04:21:55;;;;;;;11.43;10.40;;;14.90;99.90;;;15.84;82.12;98389.75;5167841;28;20314;-68
2021/07/22 04:24:29;;;;;;;14.55;11.43;;;14.90;99.90;;;15.87;82.22;98385.63;5169448;28;20213;-68
2021/07/22 04:27:03;;;;;;;12.32;11.13;;;15.00;99.90;;;15.88;82.56;98387.41;5154575;28;20677;-67
2021/07/22 04:29:36;;;;;;;12.05;10.65;;;15.10;99.90;;;15.92;82.30;98389.28;5166724;28;20581;-67
2021/07/22 04:32:09;;;;;;;20.73;18.02;;;15.10;99.90;;;15.98;82.39;98379.25;5165465;28;20237;-69
2021/07/22 04:34:43;;;;;;;14.98;13.40;;;15.20;99.90;;;16.04;81.60;98378.63;5167547;28;20664;-69
2021/07/22 04:37:16;;;;;;;11.68;10.57;;;15.20;99.90;;;16.10;80.84;98378.91;5162131;28;20314;-67
2021/07/22 04:39:51;;;;;;;12.45;11.15;;;15.20;99.90;;;16.15;79.92;98372.25;5163261;28;20555;-68
2021/07/22 04:42:24;;;;;;;12.40;10.98;;;15.10;99.90;;;16.10;80.41;98378.91;5170646;28;20199;-68
2021/07/22 04:44:57;;;;;;;12.25;11.15;;;15.10;99.90;;;16.09;80.02;98377.13;5168054;28;20262;-68
2021/07/22 04:47:30;;;;;;;11.70;10.27;;;15.10;99.90;;;16.04;80.87;98377.75;5172476;28;20229;-67
2021/07/22 04:50:04;;;;;;;12.50;11.25;;;15.10;99.90;;;16.08;80.11;98374.47;5171095;28;20207;-67
2021/07/22 04:52:37;;;;;;;12.18;11.07;;;15.10;99.90;;;16.22;80.75;98368.22;5168862;28;20223;-67
2021/07/22 04:55:12;;;;;;;11.25;10.15;;;15.20;99.90;;;16.33;80.90;98379.00;5165019;28;20571;-70
2021/07/22 04:57:45;;;;;;;10.73;9.73;;;15.40;99.90;;;16.44;80.24;98375.19;5169394;28;20305;-71
2021/07/22 05:00:18;;;;;;;11.63;10.52;;;15.50;99.90;;;16.57;79.69;98369.75;5161923;28;20217;-71
2021/07/22 05:02:56;;;;;;;11.30;10.25;;;15.60;99.90;;;16.72;78.91;98371.19;5166724;28;20346;-69
2021/07/22 05:05:35;;;;;;;10.77;9.68;;;15.70;99.90;;;16.86;78.14;98372.66;5169421;28;20630;-67
2021/07/22 05:08:08;;;;;;;11.13;10.13;;;15.80;99.90;;;17.01;77.83;98370.69;5164738;28;20302;-66
2021/07/22 05:10:42;;;;;;;10.52;9.55;;;15.90;99.90;;;17.27;76.60;98374.28;5169785;28;20203;-69
2021/07/22 05:13:15;;;;;;;10.85;9.85;;;16.10;99.90;;;17.44;76.27;98372.38;5167084;28;20222;-68
2021/07/22 05:15:48;;;;;;;11.40;10.30;;;16.30;99.90;;;17.62;75.52;98379.06;5166506;28;20310;-68
2021/07/22 05:18:21;;;;;;;10.23;9.23;;;16.50;99.90;;;17.81;73.66;98370.31;5170696;28;20218;-68
2021/07/22 05:20:54;;;;;;;10.60;9.60;;;16.60;99.90;;;18.02;73.08;98371.09;5165440;28;20211;-68
2021/07/22 05:23:27;;;;;;;11.10;10.00;;;16.80;99.90;;;18.10;72.34;98364.47;5165008;28;20192;-68
2021/07/22 05:26:07;;;;;;;10.73;9.73;;;16.90;99.90;;;18.51;70.96;98377.09;5170558;28;20302;-68
2021/07/22 05:28:40;;;;;;;11.20;10.10;;;17.00;99.90;;;18.87;69.60;98370.59;5155072;28;20242;-69
2021/07/22 05:31:14;;;;;;;11.10;10.10;;;17.50;99.90;;;19.40;67.91;98370.53;5170089;28;20199;-69
2021/07/22 05:33:47;;;;;;;11.80;10.63;;;17.90;99.90;;;19.55;67.04;98370.09;5165928;28;20581;-69
2021/07/22 05:36:20;;;;;;;11.80;10.65;;;18.00;99.90;;;19.44;66.57;98376.69;5170016;28;20199;-69
2021/07/22 05:38:53;;;;;;;11.85;10.63;;;18.00;99.90;;;19.32;67.42;98375.47;5170684;28;20243;-68
2021/07/22 05:41:27;;;;;;;11.25;10.18;;;17.90;99.90;;;19.32;67.50;98380.66;5171590;28;20225;-68
2021/07/22 05:44:00;;;;;;;12.30;11.07;;;18.00;99.90;;;19.58;67.40;98383.16;5171165;28;20194;-69
2021/07/22 05:46:33;;;;;;;12.77;11.48;;;18.20;99.90;;;20.08;65.61;98375.97;5169800;28;20219;-68
2021/07/22 05:49:07;;;;;;;12.30;11.00;;;18.70;99.90;;;20.64;63.28;98376.66;5170766;28;20199;-69
2021/07/22 05:51:40;;;;;;;12.27;10.98;;;19.10;99.90;;;21.06;62.44;98368.16;5166418;28;20214;-69
2021/07/22 05:54:13;;;;;;;12.30;11.10;;;19.50;99.90;;;21.44;60.54;98369.91;5168681;28;20225;-69
2021/07/22 05:56:47;;;;;;;12.63;11.38;;;19.90;99.90;;;21.67;59.86;98375.63;5167104;28;20219;-69
2021/07/22 05:59:20;;;;;;;11.90;10.80;;;20.10;99.90;;;21.75;59.03;98374.94;5166639;28;20213;-69
2021/07/22 06:01:53;;;;;;;12.63;10.38;;;20.00;99.90;;;22.03;59.07;98373.78;5167061;28;20204;-69
2021/07/22 06:04:26;;;;;;;11.00;10.00;;;20.30;99.90;;;22.45;57.23;98377.19;5168164;28;20199;-70
2021/07/22 06:06:59;;;;;;;11.82;10.75;;;20.60;99.90;;;22.66;56.17;98371.47;5168633;28;20239;-69
2021/07/22 06:09:33;;;;;;;11.60;10.52;;;20.60;99.90;;;22.60;55.47;98373.97;5169392;28;20215;-69
2021/07/22 06:12:08;;;;;;;12.10;10.93;;;20.60;99.90;;;22.35;56.56;98370.94;5170588;28;20214;-70
2021/07/22 06:14:41;;;;;;;11.30;10.18;;;20.50;99.90;;;22.13;57.33;98373.97;5166613;28;20218;-69
2021/07/22 06:17:14;;;;;;;10.40;9.50;;;20.40;99.90;;;22.58;56.77;98373.09;5168122;28;20214;-70
2021/07/22 06:19:47;;;;;;;10.70;9.60;;;20.50;99.90;;;22.80;56.63;98372.59;5167146;28;20261;-70
2021/07/22 06:22:20;;;;;;;10.45;9.55;;;20.90;99.90;;;23.46;54.84;98370.16;5168603;28;20202;-70
2021/07/22 06:24:53;;;;;;;11.02;10.00;;;21.30;99.90;;;23.86;53.20;98378.56;5168519;28;20210;-70
2021/07/22 06:27:27;;;;;;;11.50;10.18;;;21.60;99.90;;;23.97;52.28;98379.56;5165107;28;20219;-69
2021/07/22 06:30:01;;;;;;;11.07;9.93;;;21.90;99.90;;;24.20;51.38;98372.00;5166107;28;20289;-70
2021/07/22 06:32:36;;;;;;;11.32;10.23;;;22.20;99.90;;;24.82;50.35;98370.91;5168933;28;20226;-70
2021/07/22 06:35:10;;;;;;;11.13;10.02;;;22.40;99.90;;;25.31;48.76;98377.41;5167991;28;20306;-70
2021/07/22 06:37:45;;;;;;;10.70;9.70;;;22.60;99.90;;;25.15;49.13;98380.78;5165915;28;20602;-70
2021/07/22 06:40:18;;;;;;;11.20;10.20;;;22.40;99.90;;;25.17;47.83;98368.59;5168764;28;20573;-70
2021/07/22 06:42:53;;;;;;;11.02;10.02;;;22.50;99.40;;;24.91;48.47;98366.63;5167474;28;20209;-70
2021/07/22 06:45:26;;;;;;;11.07;9.98;;;22.40;99.40;;;25.38;48.03;98370.47;5166030;28;20293;-71
2021/07/22 06:47:59;;;;;;;10.57;9.65;;;22.80;99.50;;;24.88;48.94;98371.81;5165799;28;20218;-70
2021/07/22 06:50:32;;;;;;;10.02;9.13;;;23.00;99.10;;;25.44;48.65;98381.00;5166340;28;20293;-70
2021/07/22 06:53:06;;;;;;;10.40;9.40;;;23.00;99.30;;;25.31;48.31;98379.16;5160621;28;20310;-67
2021/07/22 06:55:39;;;;;;;17.20;10.10;;;23.10;99.00;;;25.77;47.43;98371.56;5157463;28;20203;-67
2021/07/22 06:58:13;;;;;;;10.73;9.05;;;23.40;98.60;;;26.24;46.89;98368.28;5156235;28;20219;-68
2021/07/22 07:00:46;;;;;;;10.15;9.25;;;23.80;98.50;;;26.39;46.07;98365.72;5159872;28;20209;-67
2021/07/22 07:03:19;;;;;;;10.82;9.73;;;24.00;97.40;;;26.54;45.65;98362.25;5164679;28;20305;-68
2021/07/22 07:05:52;;;;;;;11.82;9.65;;;24.20;97.40;;;26.57;45.86;98366.63;5166062;28;20205;-67
2021/07/22 07:08:25;;;;;;;10.88;9.77;;;24.30;97.20;;;26.94;44.11;98365.78;5164888;28;20258;-67
2021/07/22 07:10:59;;;;;;;10.57;9.68;;;24.40;96.20;;;26.98;44.52;98360.53;5164946;28;20290;-67
2021/07/22 07:13:33;;;;;;;11.77;9.73;;;24.30;96.70;;;27.16;45.01;98358.81;5164363;28;20601;-67
2021/07/22 07:16:07;;;;;;;10.48;9.20;;;24.70;97.20;;;27.88;43.16;98365.66;5165332;28;20257;-67
2021/07/22 07:18:44;;;;;;;10.43;9.52;;;25.20;95.80;;;27.53;45.36;98363.13;5165583;28;20202;-67
2021/07/22 07:21:20;;;;;;;10.13;9.13;;;25.30;96.50;;;28.04;43.97;98371.72;5165526;28;20674;-68
2021/07/22 07:23:53;;;;;;;11.57;9.68;;;25.40;95.80;;;28.42;42.93;98370.69;5164352;28;20202;-67
2021/07/22 07:26:26;;;;;;;10.48;9.30;;;25.90;95.10;;;28.86;41.63;98364.22;5165385;28;20233;-68
2021/07/22 07:29:01;;;;;;;9.65;8.75;;;26.10;94.90;;;29.29;40.99;98356.84;5164898;28;20207;-68
2021/07/22 07:31:34;;;;;;;11.57;9.48;;;26.30;94.10;;;29.31;40.46;98367.38;5164388;28;20225;-68
2021/07/22 07:34:08;;;;;;;9.48;8.35;;;26.50;94.30;;;29.35;39.93;98363.81;5165067;28;20229;-68
2021/07/22 07:36:44;;;;;;;8.63;7.80;;;26.60;93.30;;;28.97;40.92;98357.13;5158291;28;20215;-68
2021/07/22 07:39:17;;;;;;;9.15;8.30;;;26.40;94.40;;;29.50;39.60;98353.09;5164606;28;20718;-67
2021/07/22 07:41:50;;;;;;;12.68;8.55;;;26.60;93.30;;;29.78;38.96;98351.06;5165161;28;20689;-68
2021/07/22 07:44:24;;;;;;;8.52;7.82;;;26.90;92.70;;;30.27;38.39;98357.50;5164717;28;20290;-68
2021/07/22 07:46:57;;;;;;;8.77;8.00;;;26.80;92.80;;;30.60;37.17;98352.63;5156018;28;20276;-67
2021/07/22 07:49:30;;;;;;;9.18;8.20;;;27.10;92.30;;;31.03;36.73;98349.31;5164980;28;20197;-68
2021/07/22 07:52:04;;;;;;;8.40;7.65;;;27.50;92.10;;;31.08;36.60;98344.84;5155454;28;20274;-68
2021/07/22 07:54:40;;;;;;;9.52;8.48;;;27.50;92.10;;;31.08;36.02;98347.47;5164579;28;20218;-68
2021/07/22 07:57:13;;;;;;;8.63;7.85;;;27.60;91.40;;;30.95;36.47;98342.38;5165143;28;20765;-68
2021/07/22 07:59:47;;;;;;;8.13;7.43;;;27.70;91.40;;;31.42;35.54;98338.06;5165175;28;20713;-68
2021/07/22 08:02:20;;;;;;;8.20;7.47;;;28.00;90.80;;;31.62;35.93;98339.44;5164611;28;20225;-68
2021/07/22 08:04:57;;;;;;;8.77;7.97;;;28.10;91.10;;;31.42;36.09;98339.84;5165395;28;20277;-68
2021/07/22 08:07:30;;;;;;;8.80;8.10;;;28.20;90.80;;;31.69;35.76;98338.41;5216666;23;20328;-63
2021/07/22 08:10:04;;;;;;;8.68;7.90;;;28.30;90.80;;;31.91;35.10;98338.88;5224683;28;20223;-62
2021/07/22 08:12:38;;;;;;;9.10;8.00;;;28.60;90.10;;;32.27;34.81;98329.25;5223013;28;20675;-63
2021/07/22 08:15:16;;;;;;;8.85;7.95;;;28.80;89.20;;;32.28;34.18;98325.72;5224669;28;20393;-65
2021/07/22 08:17:49;;;;;;;8.20;7.32;;;28.80;90.10;;;32.12;34.71;98324.31;5219479;28;20863;-62
2021/07/22 08:20:22;;;;;;;8.27;7.65;;;28.70;89.70;;;31.67;35.10;98334.06;5225076;28;20647;-62
2021/07/22 08:22:55;;;;;;;8.55;7.75;;;28.90;87.60;;;31.04;35.92;98324.66;5222696;28;20193;-62
2021/07/22 08:25:28;;;;;;;8.52;7.82;;;28.70;87.80;;;31.17;35.67;98321.75;5208515;28;20292;-62
2021/07/22 08:28:01;;;;;;;8.40;7.72;;;28.80;87.80;;;31.36;35.39;98319.69;5208777;28;20303;-63
2021/07/22 08:30:36;;;;;;;8.75;7.85;;;28.90;87.20;;;31.27;35.93;98314.53;5213439;28;20204;-63
2021/07/22 08:33:09;;;;;;;8.40;7.65;;;28.90;88.70;;;31.31;35.69;98323.28;5217236;28;20197;-63
2021/07/22 08:35:42;;;;;;;9.38;8.18;;;28.90;88.20;;;31.11;35.88;98315.72;5211614;28;20213;-62
2021/07/22 08:38:15;;;;;;;8.35;7.65;;;29.10;87.20;;;31.19;35.63;98319.06;5206323;28;20731;-62
2021/07/22 08:40:48;;;;;;;8.30;7.60;;;29.00;86.70;;;30.77;36.84;98310.13;5216027;28;20284;-63
2021/07/22 08:43:23;;;;;;;9.27;8.40;;;29.00;88.30;;;30.85;37.15;98314.41;5219302;28;20633;-63
2021/07/22 08:45:57;;;;;;;8.77;7.88;;;29.10;87.70;;;31.02;36.06;98316.75;5209966;28;20193;-62
2021/07/22 08:48:30;;;;;;;9.00;8.13;;;29.10;86.30;;;30.99;36.22;98322.06;5209271;28;20204;-62
2021/07/22 08:51:04;;;;;;;8.80;8.00;;;29.50;85.90;;;30.92;36.37;98316.03;5212871;28;20196;-63
2021/07/22 08:53:41;;;;;;;8.25;7.55;;;29.40;85.30;;;31.25;34.89;98318.09;5208084;28;20200;-63
2021/07/22 08:56:14;;;;;;;8.48;7.68;;;29.70;83.70;;;31.35;35.42;98311.75;5209173;28;20652;-62
2021/07/22 08:58:48;;;;;;;8.48;7.57;;;29.60;85.00;;;31.35;34.71;98310.00;5225052;28;20272;-63
2021/07/22 09:01:23;;;;;;;8.70;8.00;;;29.70;82.80;;;31.33;34.41;98311.75;5225505;28;20193;-64
2021/07/22 09:04:00;;;;;;;8.63;7.82;;;29.90;81.60;;;31.42;35.36;98314.28;5211318;28;20616;-63
2021/07/22 09:06:34;;;;;;;8.43;7.63;;;30.10;82.40;;;31.14;34.70;98318.31;5213510;28;20228;-63
2021/07/22 09:09:13;;;;;;;8.32;7.63;;;29.80;82.00;;;31.23;32.74;98318.13;5210491;28;20193;-63
2021/07/22 09:11:55;;;;;;;8.07;7.38;;;30.00;78.10;;;30.90;33.62;98316.97;5205381;28;20197;-64
2021/07/22 09:14:31;;;;;;;8.55;7.85;;;29.70;79.70;;;30.86;34.53;98316.16;5210595;28;20289;-63
2021/07/22 09:17:05;;;;;;;8.32;7.53;;;29.60;80.40;;;30.91;34.22;98311.66;5211931;28;20229;-63
2021/07/22 09:19:40;;;;;;;8.10;7.40;;;29.60;80.00;;;30.83;34.10;98310.91;5224991;28;20196;-63
2021/07/22 09:22:13;;;;;;;8.32;7.63;;;29.50;79.60;;;30.86;33.84;98310.88;5212209;28;20606;-61
2021/07/22 09:24:49;;;;;;;8.93;8.23;;;29.50;79.30;;;30.87;34.16;98306.44;5217219;28;20686;-62
2021/07/22 09:27:41;;;;;;;8.35;7.72;;;29.50;79.80;;;30.62;34.58;98301.56;5213586;28;20300;-63
2021/07/22 09:30:18;;;;;;;8.77;7.60;;;29.50;79.60;;;30.78;35.01;98310.09;5209379;28;20518;-63
2021/07/22 09:32:53;;;;;;;7.97;7.25;;;29.30;82.40;;;30.60;33.87;98310.41;5208822;28;20581;-63
2021/07/22 09:35:26;;;;;;;8.18;7.38;;;29.50;78.40;;;30.78;34.64;98307.44;5211262;28;20676;-63
2021/07/22 09:38:10;;;;;;;7.93;7.32;;;29.50;80.10;;;30.84;33.01;98301.22;5215240;28;20217;-63
2021/07/22 09:40:43;;;;;;;9.05;7.35;;;29.40;77.80;;;30.77;32.87;98297.78;5210562;28;20569;-63
2021/07/22 09:43:37;;;;;;;8.85;7.93;;;29.60;76.10;;;30.79;32.89;98303.97;5222852;28;20584;-63
2021/07/22 09:46:10;;;;;;;14.60;13.13;;;29.60;76.60;;;30.72;33.86;98292.59;5213201;28;20209;-63
2021/07/22 09:49:09;;;;;;;9.05;8.25;;;29.60;78.60;;;30.72;35.63;98297.00;5225860;28;20197;-63
2021/07/22 09:51:42;;;;;;;8.00;7.32;;;29.60;81.10;;;30.72;34.05;98292.59;5227317;28;20556;-63
2021/07/22 09:54:15;;;;;;;8.52;7.43;;;29.70;77.90;;;30.68;34.16;98284.75;5219383;28;20197;-63
2021/07/22 09:56:51;;;;;;;8.27;7.53;;;29.80;77.10;;;30.77;34.20;98289.88;5207186;28;20221;-63
2021/07/22 09:59:24;;;;;;;8.50;7.68;;;29.60;78.20;;;30.81;32.94;98291.59;5207493;28;20191;-63
2021/07/22 10:02:03;;;;;;;8.60;7.80;;;29.80;76.10;;;30.69;33.42;98286.50;5206955;28;20199;-63
2021/07/22 10:04:40;;;;;;;8.68;7.97;;;29.60;77.30;;;30.44;33.27;98284.25;5217835;28;20195;-63
2021/07/22 10:07:16;;;;;;;8.85;8.13;;;29.60;76.00;;;30.64;33.08;98277.78;5218342;28;20592;-63
2021/07/22 10:09:52;;;;;;;8.73;7.90;;;29.40;77.00;;;30.78;32.30;98281.03;5227119;28;20640;-63
2021/07/22 10:12:26;;;;;;;8.40;7.63;;;29.40;75.50;;;30.63;34.09;98276.03;5224882;28;20720;-63
2021/07/22 10:15:00;;;;;;;9.18;8.35;;;29.40;78.60;;;30.65;33.74;98274.25;5206227;28;20288;-63
2021/07/22 10:17:36;;;;;;;9.25;8.32;;;29.40;77.50;;;30.61;33.50;98276.06;5211738;28;20271;-63
2021/07/22 10:20:12;;;;;;;7.97;7.28;;;29.40;76.30;;;30.69;33.00;98270.66;5206097;28;20236;-63
2021/07/22 10:22:47;;;;;;;8.55;7.85;;;29.40;76.00;;;30.61;33.84;98272.53;5207141;28;20566;-63
2021/07/22 10:25:20;;;;;;;8.70;7.82;;;29.50;77.10;;;30.72;33.75;98265.31;5212920;28;20192;-63
2021/07/22 10:27:55;;;;;;;8.18;7.47;;;29.60;76.60;;;30.73;33.01;98262.66;5216973;28;20214;-63
2021/07/22 10:30:28;;;;;;;9.18;8.45;;;29.50;76.00;;;30.81;33.57;98254.63;5209197;28;20461;-63
2021/07/22 10:33:03;;;;;;;8.85;8.00;;;29.50;77.30;;;30.82;32.78;98261.66;5226481;28;20197;-62
2021/07/22 10:35:38;;;;;;;8.88;8.18;;;29.60;75.60;;;30.77;33.42;98257.34;5221424;28;20684;-63
2021/07/22 10:38:14;;;;;;;9.02;8.32;;;29.80;76.80;;;30.75;34.23;98250.28;5205747;28;20296;-63
2021/07/22 10:40:58;;;;;;;8.43;7.80;;;29.70;76.90;;;30.73;33.27;98262.66;5215704;28;20191;-62